sensor_id;sensor_type;location;lat;lon;timestamp;P1;durP1;ratioP1;P2;durP2;ratioP2
52848;SDS011;38714;53.180;5.812;2023-10-19T00:00:35;8.05;;;4.95;;
52848;SDS011;38714;53.180;5.812;2023-10-19T00:03:04;9.50;;;6.10;;
52848;SDS011;38714;53.180;5.812;2023-10-19T00:05:31;8.38;;;5.68;;
52848;SDS011;38714;53.180;5.812;2023-10-19T00:08:00;11.05;;;5.68;;
52848;SDS011;38714;53.180;5.812;2023-10-19T00:10:46;9.80;;;5.82;;
52848;SDS011;38714;53.180;5.812;2023-10-19T00:13:18;7.95;;;4.55;;
52848;SDS011;38714;53.180;5.812;2023-10-19T00:15:44;7.82;;;4.53;;
52848;SDS011;38714;53.180;5.812;2023-10-19T00:18:14;10.00;;;6.05;;
52848;SDS011;38714;53.180;5.812;2023-10-19T00:20:41;11.65;;;6.43;;
52848;SDS011;38714;53.180;5.812;2023-10-19T00:23:10;13.77;;;6.65;;
52848;SDS011;38714;53.180;5.812;2023-10-19T00:25:38;10.02;;;6.78;;
52848;SDS011;38714;53.180;5.812;2023-10-19T00:28:07;13.20;;;6.00;;
52848;SDS011;38714;53.180;5.812;2023-10-19T00:30:33;8.48;;;5.47;;
52848;SDS011;38714;53.180;5.812;2023-10-19T00:33:02;10.73;;;5.63;;
52848;SDS011;38714;53.180;5.812;2023-10-19T00:35:41;12.95;;;7.15;;
52848;SDS011;38714;53.180;5.812;2023-10-19T00:38:32;7.43;;;5.00;;
52848;SDS011;38714;53.180;5.812;2023-10-19T00:40:58;9.18;;;5.18;;
52848;SDS011;38714;53.180;5.812;2023-10-19T00:43:29;9.77;;;6.38;;
52848;SDS011;38714;53.180;5.812;2023-10-19T00:46:00;10.30;;;6.28;;
52848;SDS011;38714;53.180;5.812;2023-10-19T00:48:35;10.40;;;6.97;;
52848;SDS011;38714;53.180;5.812;2023-10-19T00:51:02;12.45;;;6.85;;
52848;SDS011;38714;53.180;5.812;2023-10-19T00:53:35;10.48;;;6.72;;
52848;SDS011;38714;53.180;5.812;2023-10-19T00:56:04;11.35;;;6.22;;
52848;SDS011;38714;53.180;5.812;2023-10-19T00:58:34;11.85;;;6.47;;
52848;SDS011;38714;53.180;5.812;2023-10-19T01:01:04;12.27;;;6.32;;
52848;SDS011;38714;53.180;5.812;2023-10-19T01:03:34;13.20;;;6.88;;
52848;SDS011;38714;53.180;5.812;2023-10-19T01:06:04;16.05;;;7.63;;
52848;SDS011;38714;53.180;5.812;2023-10-19T01:08:37;22.13;;;6.45;;
52848;SDS011;38714;53.180;5.812;2023-10-19T01:11:08;11.13;;;6.97;;
52848;SDS011;38714;53.180;5.812;2023-10-19T01:13:37;12.18;;;6.88;;
52848;SDS011;38714;53.180;5.812;2023-10-19T01:16:03;11.00;;;7.15;;
52848;SDS011;38714;53.180;5.812;2023-10-19T01:18:30;9.95;;;5.57;;
52848;SDS011;38714;53.180;5.812;2023-10-19T01:20:59;13.75;;;6.15;;
52848;SDS011;38714;53.180;5.812;2023-10-19T01:23:29;15.15;;;7.63;;
52848;SDS011;38714;53.180;5.812;2023-10-19T01:25:58;9.00;;;6.85;;
52848;SDS011;38714;53.180;5.812;2023-10-19T01:31:14;9.32;;;6.22;;
52848;SDS011;38714;53.180;5.812;2023-10-19T01:33:53;26.65;;;7.43;;
52848;SDS011;38714;53.180;5.812;2023-10-19T01:36:23;13.27;;;6.25;;
52848;SDS011;38714;53.180;5.812;2023-10-19T01:38:49;8.95;;;6.63;;
52848;SDS011;38714;53.180;5.812;2023-10-19T01:41:18;10.80;;;5.88;;
52848;SDS011;38714;53.180;5.812;2023-10-19T01:43:45;10.45;;;7.07;;
52848;SDS011;38714;53.180;5.812;2023-10-19T01:46:14;12.80;;;7.47;;
52848;SDS011;38714;53.180;5.812;2023-10-19T01:48:47;10.13;;;6.63;;
52848;SDS011;38714;53.180;5.812;2023-10-19T01:51:15;11.77;;;6.75;;
52848;SDS011;38714;53.180;5.812;2023-10-19T01:53:42;12.98;;;6.88;;
52848;SDS011;38714;53.180;5.812;2023-10-19T01:56:11;9.63;;;6.60;;
52848;SDS011;38714;53.180;5.812;2023-10-19T01:58:38;9.60;;;5.65;;
52848;SDS011;38714;53.180;5.812;2023-10-19T02:01:07;10.48;;;7.22;;
52848;SDS011;38714;53.180;5.812;2023-10-19T02:03:44;12.13;;;6.53;;
52848;SDS011;38714;53.180;5.812;2023-10-19T02:06:10;10.82;;;6.65;;
52848;SDS011;38714;53.180;5.812;2023-10-19T02:08:58;11.35;;;6.53;;
52848;SDS011;38714;53.180;5.812;2023-10-19T02:11:46;12.52;;;6.28;;
52848;SDS011;38714;53.180;5.812;2023-10-19T02:14:14;8.90;;;5.22;;
52848;SDS011;38714;53.180;5.812;2023-10-19T02:16:50;9.75;;;6.65;;
52848;SDS011;38714;53.180;5.812;2023-10-19T02:19:18;8.32;;;4.57;;
52848;SDS011;38714;53.180;5.812;2023-10-19T02:21:54;7.88;;;5.18;;
52848;SDS011;38714;53.180;5.812;2023-10-19T02:24:21;8.50;;;4.75;;
52848;SDS011;38714;53.180;5.812;2023-10-19T02:26:48;9.30;;;5.13;;
52848;SDS011;38714;53.180;5.812;2023-10-19T02:29:16;9.88;;;5.32;;
52848;SDS011;38714;53.180;5.812;2023-10-19T02:31:43;7.63;;;4.88;;
52848;SDS011;38714;53.180;5.812;2023-10-19T02:34:10;7.40;;;3.88;;
52848;SDS011;38714;53.180;5.812;2023-10-19T02:36:40;8.02;;;5.22;;
52848;SDS011;38714;53.180;5.812;2023-10-19T02:39:08;6.57;;;4.30;;
52848;SDS011;38714;53.180;5.812;2023-10-19T02:41:36;9.25;;;4.75;;
52848;SDS011;38714;53.180;5.812;2023-10-19T02:44:03;9.52;;;5.32;;
52848;SDS011;38714;53.180;5.812;2023-10-19T02:46:29;5.97;;;4.35;;
52848;SDS011;38714;53.180;5.812;2023-10-19T02:48:59;6.30;;;4.53;;
52848;SDS011;38714;53.180;5.812;2023-10-19T02:51:29;8.48;;;4.95;;
52848;SDS011;38714;53.180;5.812;2023-10-19T02:53:55;6.90;;;5.43;;
52848;SDS011;38714;53.180;5.812;2023-10-19T02:56:22;8.45;;;6.38;;
52848;SDS011;38714;53.180;5.812;2023-10-19T02:58:49;7.38;;;4.85;;
52848;SDS011;38714;53.180;5.812;2023-10-19T03:01:15;7.75;;;3.35;;
52848;SDS011;38714;53.180;5.812;2023-10-19T03:03:46;4.72;;;3.63;;
52848;SDS011;38714;53.180;5.812;2023-10-19T03:06:19;5.93;;;3.63;;
52848;SDS011;38714;53.180;5.812;2023-10-19T03:08:46;6.18;;;3.70;;
52848;SDS011;38714;53.180;5.812;2023-10-19T03:11:13;6.93;;;4.45;;
52848;SDS011;38714;53.180;5.812;2023-10-19T03:13:40;5.57;;;3.45;;
52848;SDS011;38714;53.180;5.812;2023-10-19T03:16:06;5.72;;;3.47;;
52848;SDS011;38714;53.180;5.812;2023-10-19T03:18:33;5.80;;;3.25;;
52848;SDS011;38714;53.180;5.812;2023-10-19T03:21:00;6.30;;;3.63;;
52848;SDS011;38714;53.180;5.812;2023-10-19T03:23:28;9.38;;;3.53;;
52848;SDS011;38714;53.180;5.812;2023-10-19T03:25:55;4.80;;;3.33;;
52848;SDS011;38714;53.180;5.812;2023-10-19T03:28:40;6.30;;;2.80;;
52848;SDS011;38714;53.180;5.812;2023-10-19T03:31:06;4.70;;;2.90;;
52848;SDS011;38714;53.180;5.812;2023-10-19T03:33:32;3.20;;;2.90;;
52848;SDS011;38714;53.180;5.812;2023-10-19T03:36:01;3.10;;;2.78;;
52848;SDS011;38714;53.180;5.812;2023-10-19T03:38:28;3.60;;;2.65;;
52848;SDS011;38714;53.180;5.812;2023-10-19T03:40:59;3.40;;;2.53;;
52848;SDS011;38714;53.180;5.812;2023-10-19T03:43:31;6.55;;;2.80;;
52848;SDS011;38714;53.180;5.812;2023-10-19T03:45:57;10.82;;;3.08;;
52848;SDS011;38714;53.180;5.812;2023-10-19T03:48:24;3.53;;;2.25;;
52848;SDS011;38714;53.180;5.812;2023-10-19T03:50:55;6.28;;;2.53;;
52848;SDS011;38714;53.180;5.812;2023-10-19T03:53:22;5.45;;;2.17;;
52848;SDS011;38714;53.180;5.812;2023-10-19T03:55:48;3.55;;;2.58;;
52848;SDS011;38714;53.180;5.812;2023-10-19T03:58:18;3.40;;;2.35;;
52848;SDS011;38714;53.180;5.812;2023-10-19T04:00:45;5.15;;;2.85;;
52848;SDS011;38714;53.180;5.812;2023-10-19T04:03:13;5.10;;;2.03;;
52848;SDS011;38714;53.180;5.812;2023-10-19T04:05:39;4.05;;;2.67;;
52848;SDS011;38714;53.180;5.812;2023-10-19T04:08:06;2.83;;;1.75;;
52848;SDS011;38714;53.180;5.812;2023-10-19T04:10:39;3.45;;;1.95;;
52848;SDS011;38714;53.180;5.812;2023-10-19T04:13:09;4.15;;;2.50;;
52848;SDS011;38714;53.180;5.812;2023-10-19T04:15:36;4.60;;;2.55;;
52848;SDS011;38714;53.180;5.812;2023-10-19T04:18:02;4.70;;;3.03;;
52848;SDS011;38714;53.180;5.812;2023-10-19T04:20:36;4.70;;;2.20;;
52848;SDS011;38714;53.180;5.812;2023-10-19T04:23:18;4.53;;;2.38;;
52848;SDS011;38714;53.180;5.812;2023-10-19T04:25:45;5.70;;;3.40;;
52848;SDS011;38714;53.180;5.812;2023-10-19T04:28:11;3.67;;;3.15;;
52848;SDS011;38714;53.180;5.812;2023-10-19T04:30:39;3.55;;;2.80;;
52848;SDS011;38714;53.180;5.812;2023-10-19T04:33:04;6.32;;;2.50;;
52848;SDS011;38714;53.180;5.812;2023-10-19T04:35:34;4.15;;;2.95;;
52848;SDS011;38714;53.180;5.812;2023-10-19T04:38:03;4.85;;;2.90;;
52848;SDS011;38714;53.180;5.812;2023-10-19T04:40:31;7.00;;;3.13;;
52848;SDS011;38714;53.180;5.812;2023-10-19T04:42:57;3.25;;;2.45;;
52848;SDS011;38714;53.180;5.812;2023-10-19T04:45:23;6.55;;;2.78;;
52848;SDS011;38714;53.180;5.812;2023-10-19T04:47:51;4.82;;;3.60;;
52848;SDS011;38714;53.180;5.812;2023-10-19T04:50:18;5.93;;;3.83;;
52848;SDS011;38714;53.180;5.812;2023-10-19T04:52:44;5.68;;;3.40;;
52848;SDS011;38714;53.180;5.812;2023-10-19T04:55:09;6.85;;;3.47;;
52848;SDS011;38714;53.180;5.812;2023-10-19T04:57:35;5.50;;;3.13;;
52848;SDS011;38714;53.180;5.812;2023-10-19T05:00:00;3.28;;;2.25;;
52848;SDS011;38714;53.180;5.812;2023-10-19T05:02:26;4.60;;;2.88;;
52848;SDS011;38714;53.180;5.812;2023-10-19T05:04:52;10.05;;;3.88;;
52848;SDS011;38714;53.180;5.812;2023-10-19T05:07:17;5.20;;;2.45;;
52848;SDS011;38714;53.180;5.812;2023-10-19T05:09:43;3.85;;;2.08;;
52848;SDS011;38714;53.180;5.812;2023-10-19T05:12:09;5.05;;;2.72;;
52848;SDS011;38714;53.180;5.812;2023-10-19T05:14:36;4.32;;;2.65;;
52848;SDS011;38714;53.180;5.812;2023-10-19T05:17:03;6.55;;;3.28;;
52848;SDS011;38714;53.180;5.812;2023-10-19T05:19:30;3.63;;;2.38;;
52848;SDS011;38714;53.180;5.812;2023-10-19T05:21:56;5.60;;;2.63;;
52848;SDS011;38714;53.180;5.812;2023-10-19T05:24:22;4.65;;;2.63;;
52848;SDS011;38714;53.180;5.812;2023-10-19T05:26:48;4.00;;;2.58;;
52848;SDS011;38714;53.180;5.812;2023-10-19T05:29:14;3.40;;;2.42;;
52848;SDS011;38714;53.180;5.812;2023-10-19T05:31:40;4.38;;;2.45;;
52848;SDS011;38714;53.180;5.812;2023-10-19T05:34:06;5.05;;;2.50;;
52848;SDS011;38714;53.180;5.812;2023-10-19T05:36:33;4.47;;;2.28;;
52848;SDS011;38714;53.180;5.812;2023-10-19T05:38:58;5.53;;;2.72;;
52848;SDS011;38714;53.180;5.812;2023-10-19T05:41:24;4.13;;;2.35;;
52848;SDS011;38714;53.180;5.812;2023-10-19T05:43:51;5.60;;;2.72;;
52848;SDS011;38714;53.180;5.812;2023-10-19T05:46:18;5.63;;;3.45;;
52848;SDS011;38714;53.180;5.812;2023-10-19T05:48:47;4.75;;;2.28;;
52848;SDS011;38714;53.180;5.812;2023-10-19T05:51:16;4.10;;;3.10;;
52848;SDS011;38714;53.180;5.812;2023-10-19T05:53:42;3.30;;;2.47;;
52848;SDS011;38714;53.180;5.812;2023-10-19T05:56:09;4.10;;;2.67;;
52848;SDS011;38714;53.180;5.812;2023-10-19T05:58:36;2.95;;;2.35;;
52848;SDS011;38714;53.180;5.812;2023-10-19T06:01:01;5.65;;;2.88;;
52848;SDS011;38714;53.180;5.812;2023-10-19T06:03:27;4.80;;;2.35;;
52848;SDS011;38714;53.180;5.812;2023-10-19T06:05:53;2.58;;;2.38;;
52848;SDS011;38714;53.180;5.812;2023-10-19T06:08:21;4.53;;;1.95;;
52848;SDS011;38714;53.180;5.812;2023-10-19T06:10:53;8.52;;;2.95;;
52848;SDS011;38714;53.180;5.812;2023-10-19T06:13:19;3.80;;;2.43;;
52848;SDS011;38714;53.180;5.812;2023-10-19T06:15:47;3.78;;;2.28;;
52848;SDS011;38714;53.180;5.812;2023-10-19T06:18:13;3.88;;;2.58;;
52848;SDS011;38714;53.180;5.812;2023-10-19T06:20:42;5.38;;;2.42;;
52848;SDS011;38714;53.180;5.812;2023-10-19T06:23:09;6.13;;;3.10;;
52848;SDS011;38714;53.180;5.812;2023-10-19T06:25:36;5.30;;;2.72;;
52848;SDS011;38714;53.180;5.812;2023-10-19T06:28:02;5.25;;;2.88;;
52848;SDS011;38714;53.180;5.812;2023-10-19T06:30:29;4.20;;;2.08;;
52848;SDS011;38714;53.180;5.812;2023-10-19T06:32:55;4.63;;;2.53;;
52848;SDS011;38714;53.180;5.812;2023-10-19T06:35:25;7.38;;;2.80;;
52848;SDS011;38714;53.180;5.812;2023-10-19T06:37:50;5.05;;;2.00;;
52848;SDS011;38714;53.180;5.812;2023-10-19T06:40:17;6.70;;;2.60;;
52848;SDS011;38714;53.180;5.812;2023-10-19T06:42:43;6.53;;;3.92;;
52848;SDS011;38714;53.180;5.812;2023-10-19T06:45:13;4.75;;;2.88;;
52848;SDS011;38714;53.180;5.812;2023-10-19T06:47:40;8.27;;;2.83;;
52848;SDS011;38714;53.180;5.812;2023-10-19T06:50:12;6.13;;;2.45;;
52848;SDS011;38714;53.180;5.812;2023-10-19T06:52:40;3.38;;;2.05;;
52848;SDS011;38714;53.180;5.812;2023-10-19T06:55:08;3.47;;;2.95;;
52848;SDS011;38714;53.180;5.812;2023-10-19T06:57:48;5.90;;;2.65;;
52848;SDS011;38714;53.180;5.812;2023-10-19T07:00:16;3.60;;;2.53;;
52848;SDS011;38714;53.180;5.812;2023-10-19T07:02:46;6.50;;;2.88;;
52848;SDS011;38714;53.180;5.812;2023-10-19T07:05:13;6.38;;;3.00;;
52848;SDS011;38714;53.180;5.812;2023-10-19T07:07:43;4.47;;;2.40;;
52848;SDS011;38714;53.180;5.812;2023-10-19T07:10:10;6.47;;;2.70;;
52848;SDS011;38714;53.180;5.812;2023-10-19T07:12:41;7.95;;;3.13;;
52848;SDS011;38714;53.180;5.812;2023-10-19T07:15:10;3.85;;;2.90;;
52848;SDS011;38714;53.180;5.812;2023-10-19T07:17:48;5.20;;;2.58;;
52848;SDS011;38714;53.180;5.812;2023-10-19T07:20:16;5.82;;;3.28;;
52848;SDS011;38714;53.180;5.812;2023-10-19T07:22:59;5.05;;;2.33;;
52848;SDS011;38714;53.180;5.812;2023-10-19T07:25:35;5.22;;;2.20;;
52848;SDS011;38714;53.180;5.812;2023-10-19T07:28:11;3.63;;;2.83;;
52848;SDS011;38714;53.180;5.812;2023-10-19T07:30:40;5.25;;;3.60;;
52848;SDS011;38714;53.180;5.812;2023-10-19T07:33:07;5.88;;;3.53;;
52848;SDS011;38714;53.180;5.812;2023-10-19T07:35:35;6.45;;;3.42;;
52848;SDS011;38714;53.180;5.812;2023-10-19T07:38:04;4.63;;;3.60;;
52848;SDS011;38714;53.180;5.812;2023-10-19T07:40:32;8.00;;;4.57;;
52848;SDS011;38714;53.180;5.812;2023-10-19T07:42:58;7.20;;;3.78;;
52848;SDS011;38714;53.180;5.812;2023-10-19T07:45:24;7.20;;;4.30;;
52848;SDS011;38714;53.180;5.812;2023-10-19T07:47:50;9.88;;;5.47;;
52848;SDS011;38714;53.180;5.812;2023-10-19T07:50:16;9.68;;;5.65;;
52848;SDS011;38714;53.180;5.812;2023-10-19T07:52:49;9.80;;;5.15;;
52848;SDS011;38714;53.180;5.812;2023-10-19T07:55:18;8.90;;;4.75;;
52848;SDS011;38714;53.180;5.812;2023-10-19T07:57:48;8.70;;;5.18;;
52848;SDS011;38714;53.180;5.812;2023-10-19T08:00:15;8.15;;;5.07;;
52848;SDS011;38714;53.180;5.812;2023-10-19T08:02:42;9.45;;;5.60;;
52848;SDS011;38714;53.180;5.812;2023-10-19T08:05:10;10.48;;;5.28;;
52848;SDS011;38714;53.180;5.812;2023-10-19T08:07:39;9.18;;;4.68;;
52848;SDS011;38714;53.180;5.812;2023-10-19T08:10:07;10.05;;;5.78;;
52848;SDS011;38714;53.180;5.812;2023-10-19T08:12:35;10.48;;;4.95;;
52848;SDS011;38714;53.180;5.812;2023-10-19T08:15:02;10.82;;;5.50;;
52848;SDS011;38714;53.180;5.812;2023-10-19T08:17:29;6.95;;;5.32;;
52848;SDS011;38714;53.180;5.812;2023-10-19T08:19:55;10.77;;;5.88;;
52848;SDS011;38714;53.180;5.812;2023-10-19T08:22:22;19.27;;;6.25;;
52848;SDS011;38714;53.180;5.812;2023-10-19T08:24:48;12.75;;;5.95;;
52848;SDS011;38714;53.180;5.812;2023-10-19T08:27:15;11.25;;;6.03;;
52848;SDS011;38714;53.180;5.812;2023-10-19T08:29:42;12.30;;;6.30;;
52848;SDS011;38714;53.180;5.812;2023-10-19T08:32:08;10.30;;;5.43;;
52848;SDS011;38714;53.180;5.812;2023-10-19T08:34:35;9.73;;;4.75;;
52848;SDS011;38714;53.180;5.812;2023-10-19T08:37:01;11.02;;;6.18;;
52848;SDS011;38714;53.180;5.812;2023-10-19T08:39:27;13.20;;;6.18;;
52848;SDS011;38714;53.180;5.812;2023-10-19T08:41:53;10.10;;;5.95;;
52848;SDS011;38714;53.180;5.812;2023-10-19T08:44:20;13.68;;;6.13;;
52848;SDS011;38714;53.180;5.812;2023-10-19T08:46:46;9.80;;;5.78;;
52848;SDS011;38714;53.180;5.812;2023-10-19T08:49:16;8.07;;;5.13;;
52848;SDS011;38714;53.180;5.812;2023-10-19T08:51:45;10.65;;;5.25;;
52848;SDS011;38714;53.180;5.812;2023-10-19T08:54:12;13.43;;;5.07;;
52848;SDS011;38714;53.180;5.812;2023-10-19T08:56:39;13.98;;;6.20;;
52848;SDS011;38714;53.180;5.812;2023-10-19T08:59:06;10.02;;;6.05;;
52848;SDS011;38714;53.180;5.812;2023-10-19T09:01:32;12.45;;;5.85;;
52848;SDS011;38714;53.180;5.812;2023-10-19T09:04:00;11.98;;;5.63;;
52848;SDS011;38714;53.180;5.812;2023-10-19T09:06:27;10.23;;;6.22;;
52848;SDS011;38714;53.180;5.812;2023-10-19T09:08:54;10.32;;;5.50;;
52848;SDS011;38714;53.180;5.812;2023-10-19T09:11:27;11.20;;;5.57;;
52848;SDS011;38714;53.180;5.812;2023-10-19T09:13:53;12.10;;;5.22;;
52848;SDS011;38714;53.180;5.812;2023-10-19T09:16:19;10.60;;;6.00;;
52848;SDS011;38714;53.180;5.812;2023-10-19T09:18:47;11.32;;;6.53;;
52848;SDS011;38714;53.180;5.812;2023-10-19T09:21:17;16.90;;;7.00;;
52848;SDS011;38714;53.180;5.812;2023-10-19T09:23:49;12.00;;;6.63;;
52848;SDS011;38714;53.180;5.812;2023-10-19T09:26:16;15.07;;;6.78;;
52848;SDS011;38714;53.180;5.812;2023-10-19T09:28:45;11.02;;;6.10;;
52848;SDS011;38714;53.180;5.812;2023-10-19T09:31:13;13.15;;;5.50;;
52848;SDS011;38714;53.180;5.812;2023-10-19T09:33:41;11.20;;;5.43;;
52848;SDS011;38714;53.180;5.812;2023-10-19T09:36:08;12.80;;;5.47;;
52848;SDS011;38714;53.180;5.812;2023-10-19T09:38:38;12.48;;;5.95;;
52848;SDS011;38714;53.180;5.812;2023-10-19T09:41:17;11.82;;;5.70;;
52848;SDS011;38714;53.180;5.812;2023-10-19T09:43:44;11.73;;;5.70;;
52848;SDS011;38714;53.180;5.812;2023-10-19T09:46:11;10.38;;;5.63;;
52848;SDS011;38714;53.180;5.812;2023-10-19T09:48:42;11.70;;;5.93;;
52848;SDS011;38714;53.180;5.812;2023-10-19T09:51:12;14.10;;;6.47;;
52848;SDS011;38714;53.180;5.812;2023-10-19T09:53:39;14.88;;;6.72;;
52848;SDS011;38714;53.180;5.812;2023-10-19T09:56:09;20.92;;;7.10;;
52848;SDS011;38714;53.180;5.812;2023-10-19T09:58:43;19.25;;;6.68;;
52848;SDS011;38714;53.180;5.812;2023-10-19T10:01:11;19.05;;;6.95;;
52848;SDS011;38714;53.180;5.812;2023-10-19T10:06:09;12.73;;;5.75;;
52848;SDS011;38714;53.180;5.812;2023-10-19T10:08:39;13.27;;;6.85;;
52848;SDS011;38714;53.180;5.812;2023-10-19T10:11:21;13.98;;;7.20;;
52848;SDS011;38714;53.180;5.812;2023-10-19T10:13:57;14.75;;;6.25;;
52848;SDS011;38714;53.180;5.812;2023-10-19T10:16:24;13.00;;;5.90;;
52848;SDS011;38714;53.180;5.812;2023-10-19T10:18:54;14.93;;;6.60;;
52848;SDS011;38714;53.180;5.812;2023-10-19T10:21:22;9.73;;;5.82;;
52848;SDS011;38714;53.180;5.812;2023-10-19T10:23:52;15.52;;;6.30;;
52848;SDS011;38714;53.180;5.812;2023-10-19T10:26:20;13.20;;;5.38;;
52848;SDS011;38714;53.180;5.812;2023-10-19T10:29:07;13.18;;;7.80;;
52848;SDS011;38714;53.180;5.812;2023-10-19T10:31:59;12.43;;;5.60;;
52848;SDS011;38714;53.180;5.812;2023-10-19T10:37:03;17.63;;;8.50;;
52848;SDS011;38714;53.180;5.812;2023-10-19T10:39:32;14.90;;;7.53;;
52848;SDS011;38714;53.180;5.812;2023-10-19T10:41:59;14.63;;;7.10;;
52848;SDS011;38714;53.180;5.812;2023-10-19T10:44:49;12.88;;;6.93;;
52848;SDS011;38714;53.180;5.812;2023-10-19T10:47:21;18.20;;;7.03;;
52848;SDS011;38714;53.180;5.812;2023-10-19T10:49:53;13.68;;;6.40;;
52848;SDS011;38714;53.180;5.812;2023-10-19T10:52:33;10.88;;;6.40;;
52848;SDS011;38714;53.180;5.812;2023-10-19T10:55:15;14.02;;;6.32;;
52848;SDS011;38714;53.180;5.812;2023-10-19T10:57:41;18.05;;;7.28;;
52848;SDS011;38714;53.180;5.812;2023-10-19T11:00:09;15.32;;;6.90;;
52848;SDS011;38714;53.180;5.812;2023-10-19T11:02:58;17.05;;;7.13;;
52848;SDS011;38714;53.180;5.812;2023-10-19T11:05:25;16.42;;;8.25;;
52848;SDS011;38714;53.180;5.812;2023-10-19T11:10:34;15.85;;;7.75;;
52848;SDS011;38714;53.180;5.812;2023-10-19T11:13:05;20.80;;;7.18;;
52848;SDS011;38714;53.180;5.812;2023-10-19T11:15:32;20.38;;;9.23;;
52848;SDS011;38714;53.180;5.812;2023-10-19T11:17:58;21.77;;;9.93;;
52848;SDS011;38714;53.180;5.812;2023-10-19T11:20:25;17.15;;;9.43;;
52848;SDS011;38714;53.180;5.812;2023-10-19T11:22:52;20.40;;;8.32;;
52848;SDS011;38714;53.180;5.812;2023-10-19T11:25:21;20.52;;;9.20;;
52848;SDS011;38714;53.180;5.812;2023-10-19T11:27:53;25.58;;;9.32;;
52848;SDS011;38714;53.180;5.812;2023-10-19T11:30:26;16.88;;;7.43;;
52848;SDS011;38714;53.180;5.812;2023-10-19T11:32:53;19.40;;;8.82;;
52848;SDS011;38714;53.180;5.812;2023-10-19T11:35:27;19.85;;;8.80;;
52848;SDS011;38714;53.180;5.812;2023-10-19T11:37:59;21.13;;;9.85;;
52848;SDS011;38714;53.180;5.812;2023-10-19T11:40:27;21.88;;;9.98;;
52848;SDS011;38714;53.180;5.812;2023-10-19T11:42:53;21.02;;;9.32;;
52848;SDS011;38714;53.180;5.812;2023-10-19T11:45:21;17.63;;;8.82;;
52848;SDS011;38714;53.180;5.812;2023-10-19T11:47:48;22.15;;;10.20;;
52848;SDS011;38714;53.180;5.812;2023-10-19T11:50:15;21.52;;;8.95;;
52848;SDS011;38714;53.180;5.812;2023-10-19T11:52:43;15.80;;;7.97;;
52848;SDS011;38714;53.180;5.812;2023-10-19T11:55:10;22.23;;;9.27;;
52848;SDS011;38714;53.180;5.812;2023-10-19T11:57:38;19.02;;;8.82;;
52848;SDS011;38714;53.180;5.812;2023-10-19T12:00:08;19.92;;;8.32;;
52848;SDS011;38714;53.180;5.812;2023-10-19T12:02:38;12.05;;;6.50;;
52848;SDS011;38714;53.180;5.812;2023-10-19T12:05:06;16.25;;;6.55;;
52848;SDS011;38714;53.180;5.812;2023-10-19T12:07:36;11.00;;;6.47;;
52848;SDS011;38714;53.180;5.812;2023-10-19T12:10:02;8.85;;;5.57;;
52848;SDS011;38714;53.180;5.812;2023-10-19T12:12:29;12.70;;;5.63;;
52848;SDS011;38714;53.180;5.812;2023-10-19T12:14:55;9.82;;;4.72;;
52848;SDS011;38714;53.180;5.812;2023-10-19T12:17:20;12.20;;;5.80;;
52848;SDS011;38714;53.180;5.812;2023-10-19T12:19:47;9.88;;;5.88;;
52848;SDS011;38714;53.180;5.812;2023-10-19T12:22:13;12.15;;;5.90;;
52848;SDS011;38714;53.180;5.812;2023-10-19T12:24:38;11.95;;;5.57;;
52848;SDS011;38714;53.180;5.812;2023-10-19T12:27:04;11.27;;;5.13;;
52848;SDS011;38714;53.180;5.812;2023-10-19T12:29:29;8.75;;;5.10;;
52848;SDS011;38714;53.180;5.812;2023-10-19T12:31:56;10.20;;;5.28;;
52848;SDS011;38714;53.180;5.812;2023-10-19T12:34:22;9.80;;;5.85;;
52848;SDS011;38714;53.180;5.812;2023-10-19T12:36:48;7.18;;;4.30;;
52848;SDS011;38714;53.180;5.812;2023-10-19T12:39:14;9.82;;;4.35;;
52848;SDS011;38714;53.180;5.812;2023-10-19T12:42:03;8.70;;;4.22;;
52848;SDS011;38714;53.180;5.812;2023-10-19T12:44:29;7.60;;;4.38;;
52848;SDS011;38714;53.180;5.812;2023-10-19T12:46:57;6.57;;;3.97;;
52848;SDS011;38714;53.180;5.812;2023-10-19T12:49:23;5.85;;;4.85;;
52848;SDS011;38714;53.180;5.812;2023-10-19T12:51:51;9.73;;;4.30;;
52848;SDS011;38714;53.180;5.812;2023-10-19T12:54:17;6.30;;;4.32;;
52848;SDS011;38714;53.180;5.812;2023-10-19T12:56:43;9.05;;;3.30;;
52848;SDS011;38714;53.180;5.812;2023-10-19T12:59:08;7.10;;;3.72;;
52848;SDS011;38714;53.180;5.812;2023-10-19T13:01:34;5.45;;;4.13;;
52848;SDS011;38714;53.180;5.812;2023-10-19T13:04:00;5.95;;;3.72;;
52848;SDS011;38714;53.180;5.812;2023-10-19T13:06:41;5.90;;;3.35;;
52848;SDS011;38714;53.180;5.812;2023-10-19T13:09:07;5.32;;;3.13;;
52848;SDS011;38714;53.180;5.812;2023-10-19T13:11:34;6.75;;;3.47;;
52848;SDS011;38714;53.180;5.812;2023-10-19T13:14:00;4.38;;;3.25;;
52848;SDS011;38714;53.180;5.812;2023-10-19T13:16:31;4.80;;;3.08;;
52848;SDS011;38714;53.180;5.812;2023-10-19T13:18:57;4.07;;;2.75;;
52848;SDS011;38714;53.180;5.812;2023-10-19T13:21:22;5.93;;;3.50;;
52848;SDS011;38714;53.180;5.812;2023-10-19T13:23:52;6.53;;;3.38;;
52848;SDS011;38714;53.180;5.812;2023-10-19T13:26:18;12.32;;;3.63;;
52848;SDS011;38714;53.180;5.812;2023-10-19T13:28:44;6.25;;;3.78;;
52848;SDS011;38714;53.180;5.812;2023-10-19T13:31:11;8.52;;;4.38;;
52848;SDS011;38714;53.180;5.812;2023-10-19T13:33:40;5.68;;;3.35;;
52848;SDS011;38714;53.180;5.812;2023-10-19T13:36:06;7.00;;;3.88;;
52848;SDS011;38714;53.180;5.812;2023-10-19T13:38:32;6.72;;;4.03;;
52848;SDS011;38714;53.180;5.812;2023-10-19T13:40:58;8.30;;;3.95;;
52848;SDS011;38714;53.180;5.812;2023-10-19T13:43:23;6.88;;;4.45;;
52848;SDS011;38714;53.180;5.812;2023-10-19T13:45:49;9.00;;;4.03;;
52848;SDS011;38714;53.180;5.812;2023-10-19T13:48:18;6.53;;;4.05;;
52848;SDS011;38714;53.180;5.812;2023-10-19T13:50:48;8.02;;;4.10;;
52848;SDS011;38714;53.180;5.812;2023-10-19T13:53:14;10.75;;;4.63;;
52848;SDS011;38714;53.180;5.812;2023-10-19T13:55:43;7.15;;;4.53;;
52848;SDS011;38714;53.180;5.812;2023-10-19T13:58:09;8.15;;;4.68;;
52848;SDS011;38714;53.180;5.812;2023-10-19T14:00:36;6.95;;;3.72;;
52848;SDS011;38714;53.180;5.812;2023-10-19T14:03:04;7.68;;;3.60;;
52848;SDS011;38714;53.180;5.812;2023-10-19T14:05:35;11.95;;;4.18;;
52848;SDS011;38714;53.180;5.812;2023-10-19T14:08:01;7.70;;;4.70;;
52848;SDS011;38714;53.180;5.812;2023-10-19T14:10:30;8.48;;;5.18;;
52848;SDS011;38714;53.180;5.812;2023-10-19T14:12:56;7.03;;;4.20;;
52848;SDS011;38714;53.180;5.812;2023-10-19T14:15:22;7.88;;;3.90;;
52848;SDS011;38714;53.180;5.812;2023-10-19T14:17:48;10.02;;;5.47;;
52848;SDS011;38714;53.180;5.812;2023-10-19T14:20:14;14.63;;;5.68;;
52848;SDS011;38714;53.180;5.812;2023-10-19T14:22:42;14.93;;;5.07;;
52848;SDS011;38714;53.180;5.812;2023-10-19T14:25:14;11.38;;;5.88;;
52848;SDS011;38714;53.180;5.812;2023-10-19T14:27:41;8.90;;;4.70;;
52848;SDS011;38714;53.180;5.812;2023-10-19T14:30:10;6.63;;;4.43;;
52848;SDS011;38714;53.180;5.812;2023-10-19T14:32:45;7.68;;;4.70;;
52848;SDS011;38714;53.180;5.812;2023-10-19T14:35:14;7.18;;;4.15;;
52848;SDS011;38714;53.180;5.812;2023-10-19T14:37:42;5.80;;;3.40;;
52848;SDS011;38714;53.180;5.812;2023-10-19T14:40:09;6.40;;;4.15;;
52848;SDS011;38714;53.180;5.812;2023-10-19T14:42:36;6.93;;;4.15;;
52848;SDS011;38714;53.180;5.812;2023-10-19T14:45:08;6.82;;;4.32;;
52848;SDS011;38714;53.180;5.812;2023-10-19T14:47:37;6.97;;;4.47;;
52848;SDS011;38714;53.180;5.812;2023-10-19T14:50:06;5.30;;;3.78;;
52848;SDS011;38714;53.180;5.812;2023-10-19T14:52:36;5.88;;;4.15;;
52848;SDS011;38714;53.180;5.812;2023-10-19T14:55:02;6.15;;;4.25;;
52848;SDS011;38714;53.180;5.812;2023-10-19T14:57:31;9.30;;;3.75;;
52848;SDS011;38714;53.180;5.812;2023-10-19T14:59:59;7.43;;;4.18;;
52848;SDS011;38714;53.180;5.812;2023-10-19T15:02:34;7.28;;;4.45;;